createdAt,value
2023-04-13T00:00:11.168Z,3.85
2023-04-13T00:01:09.311Z,4.63
2023-04-13T00:02:06.330Z,4.70
2023-04-13T00:03:03.728Z,4.55
2023-04-13T00:04:03.848Z,6.60
2023-04-13T00:05:03.617Z,5.13
2023-04-13T00:06:00.335Z,2.92
2023-04-13T00:06:59.061Z,3.50
2023-04-13T00:07:56.364Z,5.70
2023-04-13T00:08:54.979Z,8.82
2023-04-13T00:09:51.644Z,6.28
2023-04-13T00:10:51.072Z,5.53
2023-04-13T00:11:49.133Z,5.60
2023-04-13T00:12:48.432Z,9.38
2023-04-13T00:13:47.355Z,5.13
2023-04-13T00:14:44.132Z,4.35
2023-04-13T00:15:43.226Z,4.47
2023-04-13T00:16:39.913Z,4.95
2023-04-13T00:17:38.051Z,6.25
2023-04-13T00:18:34.794Z,3.30
2023-04-13T00:19:34.626Z,5.35
2023-04-13T00:20:31.177Z,4.60
2023-04-13T00:21:28.061Z,9.68
2023-04-13T00:22:25.925Z,3.30
2023-04-13T00:23:22.463Z,5.53
2023-04-13T00:24:19.888Z,7.47
2023-04-13T00:25:17.072Z,3.58
2023-04-13T00:26:13.772Z,5.70
2023-04-13T00:27:11.006Z,5.63
2023-04-13T00:28:08.263Z,6.75
2023-04-13T00:29:05.111Z,2.67
2023-04-13T00:30:02.216Z,13.10
2023-04-13T00:30:58.974Z,5.80
2023-04-13T00:31:56.025Z,8.25
2023-04-13T00:32:52.725Z,5.60
2023-04-13T00:33:49.433Z,7.20
2023-04-13T00:34:46.009Z,6.10
2023-04-13T00:35:43.730Z,6.85
2023-04-13T00:36:41.134Z,4.18
2023-04-13T00:37:38.770Z,5.53
2023-04-13T00:38:35.638Z,5.70
2023-04-13T00:39:32.354Z,14.40
2023-04-13T00:40:30.121Z,6.95
2023-04-13T00:41:26.862Z,4.50
2023-04-13T00:42:23.494Z,4.70
2023-04-13T00:43:20.166Z,5.25
2023-04-13T00:44:19.827Z,4.13
2023-04-13T00:45:18.325Z,10.65
2023-04-13T00:46:16.592Z,4.25
2023-04-13T00:47:17.790Z,6.82
2023-04-13T00:48:14.719Z,6.05
2023-04-13T00:49:12.651Z,4.00
2023-04-13T00:50:09.958Z,5.18
2023-04-13T00:51:08.028Z,8.57
2023-04-13T00:52:05.481Z,7.15
2023-04-13T00:53:02.686Z,3.75
2023-04-13T00:53:59.638Z,8.07
2023-04-13T00:54:59.539Z,10.13
2023-04-13T00:55:57.171Z,6.40
2023-04-13T00:56:54.359Z,4.93
2023-04-13T00:57:52.725Z,4.30
2023-04-13T00:58:49.962Z,13.25
2023-04-13T00:59:49.450Z,25.70
2023-04-13T01:00:46.058Z,10.15
2023-04-13T01:01:56.562Z,7.97
2023-04-13T01:02:53.835Z,4.13
2023-04-13T01:03:53.590Z,6.20
2023-04-13T01:04:50.782Z,5.18
2023-04-13T01:06:05.312Z,5.18
2023-04-13T01:07:12.182Z,4.75
2023-04-13T01:08:24.126Z,3.67
2023-04-13T01:09:45.549Z,5.18
2023-04-13T01:10:50.091Z,6.55
2023-04-13T01:11:59.887Z,7.75
2023-04-13T01:13:10.357Z,6.30
2023-04-13T01:14:13.185Z,7.30
2023-04-13T01:15:15.472Z,4.45
2023-04-13T01:16:20.613Z,5.38
2023-04-13T01:17:23.529Z,7.55
2023-04-13T01:19:34.975Z,3.95
2023-04-13T01:20:33.512Z,5.32
2023-04-13T01:21:32.018Z,3.90
2023-04-13T01:22:35.741Z,3.75
2023-04-13T01:23:51.351Z,6.22
2023-04-13T01:25:36.818Z,6.72
2023-04-13T01:27:03.370Z,5.07
2023-04-13T01:28:07.422Z,6.85
2023-04-13T01:29:04.428Z,12.02
2023-04-13T01:30:01.392Z,4.13
2023-04-13T01:31:01.515Z,4.55
2023-04-13T01:31:59.027Z,5.82
2023-04-13T01:32:58.164Z,6.75
2023-04-13T01:33:55.421Z,6.65
2023-04-13T01:34:52.091Z,4.30
2023-04-13T01:35:50.222Z,5.57
2023-04-13T01:36:47.039Z,4.13
2023-04-13T01:37:43.734Z,5.75
2023-04-13T01:38:40.313Z,4.63
2023-04-13T01:39:38.565Z,7.13
2023-04-13T01:40:41.820Z,4.28
2023-04-13T01:41:38.750Z,6.97
2023-04-13T01:42:35.390Z,6.38
2023-04-13T01:43:32.583Z,3.97
2023-04-13T01:44:32.989Z,4.47
2023-04-13T01:45:40.793Z,5.30
2023-04-13T01:46:41.925Z,3.28
2023-04-13T01:47:51.166Z,2.60
2023-04-13T01:48:52.734Z,7.07
2023-04-13T01:50:06.639Z,6.53
2023-04-13T01:51:11.527Z,6.88
2023-04-13T01:52:08.490Z,6.90
2023-04-13T01:53:11.371Z,4.55
2023-04-13T01:54:19.088Z,6.45
2023-04-13T01:55:16.141Z,4.40
2023-04-13T01:56:15.826Z,6.90
2023-04-13T01:57:14.332Z,9.00
2023-04-13T01:58:13.603Z,4.55
2023-04-13T01:59:10.728Z,6.22
2023-04-13T02:00:12.167Z,5.63
2023-04-13T02:01:09.655Z,8.98
2023-04-13T02:02:07.050Z,6.25
2023-04-13T02:03:05.257Z,5.25
2023-04-13T02:04:02.851Z,8.25
2023-04-13T02:04:59.889Z,5.15
2023-04-13T02:05:56.734Z,34.03
2023-04-13T02:06:53.541Z,30.95
2023-04-13T02:07:50.129Z,25.17
2023-04-13T02:08:47.197Z,18.80
2023-04-13T02:09:43.734Z,10.15
2023-04-13T02:10:42.464Z,8.15
2023-04-13T02:11:39.050Z,4.18
2023-04-13T02:12:35.627Z,9.00
2023-04-13T02:13:32.576Z,9.55
2023-04-13T02:14:29.258Z,9.20
2023-04-13T02:15:26.845Z,4.80
2023-04-13T02:16:23.641Z,5.38
2023-04-13T02:17:20.321Z,5.70
2023-04-13T02:18:16.953Z,5.65
2023-04-13T02:19:13.722Z,8.77
2023-04-13T02:20:13.912Z,5.15
2023-04-13T02:21:11.287Z,3.97
2023-04-13T02:22:08.699Z,5.70
2023-04-13T02:23:05.505Z,6.63
2023-04-13T02:24:02.646Z,4.80
2023-04-13T02:24:59.299Z,4.55
2023-04-13T02:25:55.946Z,4.40
2023-04-13T02:26:52.546Z,9.48
2023-04-13T02:27:49.234Z,9.20
2023-04-13T02:28:46.453Z,8.38
2023-04-13T02:29:44.165Z,145.15
2023-04-13T02:30:42.545Z,87.10
2023-04-13T02:31:44.155Z,104.35
2023-04-13T02:32:41.792Z,129.43
2023-04-13T02:33:39.912Z,43.53
2023-04-13T02:34:36.618Z,30.58
2023-04-13T02:35:35.595Z,34.15
2023-04-13T02:36:32.904Z,12.98
2023-04-13T02:37:31.221Z,14.00
2023-04-13T02:38:28.514Z,6.55
2023-04-13T02:39:25.122Z,4.28
2023-04-13T02:40:21.902Z,4.35
2023-04-13T02:41:23.072Z,6.28
2023-04-13T02:42:19.847Z,6.65
2023-04-13T02:43:17.725Z,3.97
2023-04-13T02:44:14.932Z,6.75
2023-04-13T02:45:18.384Z,3.47
2023-04-13T02:46:15.986Z,6.72
2023-04-13T02:47:12.616Z,5.88
2023-04-13T02:48:12.130Z,3.28
2023-04-13T02:49:09.191Z,10.52
2023-04-13T02:50:06.804Z,4.45
2023-04-13T02:51:03.682Z,5.13
2023-04-13T02:52:00.620Z,6.50
2023-04-13T02:52:57.252Z,3.60
2023-04-13T02:53:57.804Z,3.20
2023-04-13T02:54:54.880Z,8.25
2023-04-13T02:55:53.637Z,6.47
2023-04-13T02:56:50.361Z,6.22
2023-04-13T02:57:46.981Z,4.47
2023-04-13T02:58:44.869Z,7.22
2023-04-13T02:59:42.037Z,8.82
2023-04-13T03:00:38.729Z,4.03
2023-04-13T03:01:35.361Z,6.97
2023-04-13T03:02:32.057Z,3.72
2023-04-13T03:03:30.440Z,8.30
2023-04-13T03:04:29.272Z,8.18
2023-04-13T03:05:26.634Z,8.88
2023-04-13T03:06:24.181Z,4.50
2023-04-13T03:07:20.831Z,3.70
2023-04-13T03:08:17.674Z,7.65
2023-04-13T03:09:14.310Z,3.70
2023-04-13T03:10:11.397Z,5.60
2023-04-13T03:11:09.585Z,3.35
2023-04-13T03:12:09.944Z,5.90
2023-04-13T03:13:07.565Z,3.85
2023-04-13T03:14:04.381Z,7.55
2023-04-13T03:15:02.936Z,8.73
2023-04-13T03:16:00.697Z,4.72
2023-04-13T03:16:58.271Z,2.75
2023-04-13T03:17:54.977Z,3.97
2023-04-13T03:18:52.255Z,5.25
2023-04-13T03:19:49.861Z,3.63
2023-04-13T03:20:46.524Z,6.25
2023-04-13T03:21:46.283Z,4.97
2023-04-13T03:22:46.183Z,7.93
2023-04-13T03:23:43.369Z,6.38
2023-04-13T03:24:39.995Z,3.00
2023-04-13T03:25:36.620Z,6.07
2023-04-13T03:26:33.328Z,6.03
2023-04-13T03:27:29.962Z,6.13
2023-04-13T03:28:26.702Z,6.93
2023-04-13T03:29:24.459Z,3.30
2023-04-13T03:30:21.572Z,4.53
2023-04-13T03:31:18.270Z,5.40
2023-04-13T03:32:14.907Z,5.47
2023-04-13T03:33:11.519Z,4.65
2023-04-13T03:34:08.163Z,3.33
2023-04-13T03:35:06.864Z,5.45
2023-04-13T03:36:03.787Z,3.67
2023-04-13T03:37:00.799Z,9.30
2023-04-13T03:37:57.378Z,3.67
2023-04-13T03:38:54.834Z,6.18
2023-04-13T03:39:51.438Z,6.50
2023-04-13T03:40:48.091Z,3.00
2023-04-13T03:41:44.657Z,4.65
2023-04-13T03:42:41.546Z,5.85
2023-04-13T03:43:38.126Z,5.05
2023-04-13T03:44:34.787Z,6.68
2023-04-13T03:45:31.408Z,5.93
2023-04-13T03:46:28.081Z,6.35
2023-04-13T03:47:24.764Z,7.82
2023-04-13T03:48:21.409Z,11.60
2023-04-13T03:49:18.164Z,11.13
2023-04-13T03:50:14.859Z,8.73
2023-04-13T03:51:11.482Z,8.00
2023-04-13T03:52:08.115Z,5.20
2023-04-13T03:53:04.774Z,9.07
2023-04-13T03:54:01.621Z,8.35
2023-04-13T03:54:58.381Z,6.60
2023-04-13T03:55:55.071Z,10.63
2023-04-13T03:56:51.964Z,6.88
2023-04-13T03:57:48.882Z,17.42
2023-04-13T03:58:45.607Z,8.27
2023-04-13T03:59:42.261Z,12.82
2023-04-13T04:00:38.798Z,12.68
2023-04-13T04:01:35.486Z,9.32
2023-04-13T04:02:32.273Z,9.15
2023-04-13T04:03:29.068Z,4.60
2023-04-13T04:04:25.796Z,13.50
2023-04-13T04:05:22.663Z,7.43
2023-04-13T04:06:19.492Z,10.90
2023-04-13T04:07:16.476Z,4.70
2023-04-13T04:08:13.096Z,6.93
2023-04-13T04:09:10.249Z,5.90
2023-04-13T04:10:08.043Z,7.82
2023-04-13T04:11:04.992Z,8.23
2023-04-13T04:12:01.771Z,6.82
2023-04-13T04:12:58.723Z,8.90
2023-04-13T04:13:55.313Z,4.68
2023-04-13T04:14:51.926Z,4.55
2023-04-13T04:15:48.597Z,6.35
2023-04-13T04:16:45.265Z,3.95
2023-04-13T04:17:41.927Z,6.13
2023-04-13T04:18:38.773Z,6.93
2023-04-13T04:19:35.429Z,3.60
2023-04-13T04:20:32.033Z,6.43
2023-04-13T04:21:34.343Z,8.15
2023-04-13T04:22:34.854Z,4.70
2023-04-13T04:23:34.588Z,4.88
2023-04-13T04:24:31.370Z,4.53
2023-04-13T04:25:27.998Z,3.30
2023-04-13T04:26:26.021Z,4.50
2023-04-13T04:27:26.353Z,10.95
2023-04-13T04:28:22.961Z,7.75
2023-04-13T04:29:22.630Z,5.20
2023-04-13T04:30:22.079Z,12.07
2023-04-13T04:31:18.776Z,9.98
2023-04-13T04:32:15.568Z,9.43
2023-04-13T04:33:12.497Z,8.30
2023-04-13T04:34:10.653Z,14.07
2023-04-13T04:35:08.706Z,31.00
2023-04-13T04:36:07.567Z,20.17
2023-04-13T04:37:17.707Z,14.25
2023-04-13T04:38:18.061Z,20.30
2023-04-13T04:39:14.900Z,20.75
2023-04-13T04:40:13.041Z,10.85
2023-04-13T04:41:09.653Z,9.60
2023-04-13T04:42:07.558Z,9.25
2023-04-13T04:43:04.853Z,9.30
2023-04-13T04:44:02.954Z,11.48
2023-04-13T04:44:59.583Z,10.75
2023-04-13T04:45:59.383Z,18.27
2023-04-13T04:46:56.700Z,28.50
2023-04-13T04:47:57.660Z,22.40
2023-04-13T04:48:54.676Z,12.95
2023-04-13T04:49:51.530Z,12.88
2023-04-13T04:50:49.042Z,15.90
2023-04-13T04:51:46.017Z,16.98
2023-04-13T04:52:43.210Z,20.02
2023-04-13T04:53:39.737Z,22.33
2023-04-13T04:54:36.327Z,21.98
2023-04-13T04:55:33.857Z,18.23
2023-04-13T04:56:30.853Z,18.13
2023-04-13T04:57:29.513Z,14.32
2023-04-13T04:58:26.315Z,10.98
2023-04-13T04:59:24.012Z,8.80
2023-04-13T05:00:21.003Z,18.20
2023-04-13T05:01:18.097Z,90.85
2023-04-13T05:02:14.911Z,53.38
2023-04-13T05:03:11.882Z,36.08
2023-04-13T05:04:09.020Z,13.02
2023-04-13T05:05:07.078Z,11.95
2023-04-13T05:06:03.899Z,13.43
2023-04-13T05:07:01.007Z,18.30
2023-04-13T05:07:57.707Z,11.50
2023-04-13T05:08:54.305Z,9.30
2023-04-13T05:09:50.957Z,7.90
2023-04-13T05:10:47.653Z,8.98
2023-04-13T05:11:44.256Z,9.98
2023-04-13T05:12:40.882Z,7.82
2023-04-13T05:13:37.603Z,10.57
2023-04-13T05:14:34.180Z,12.68
2023-04-13T05:15:30.935Z,10.15
2023-04-13T05:16:30.549Z,8.63
2023-04-13T05:17:27.280Z,8.18
2023-04-13T05:18:23.878Z,7.97
2023-04-13T05:19:20.802Z,7.50
2023-04-13T05:20:18.009Z,11.95
2023-04-13T05:21:15.931Z,14.18
2023-04-13T05:22:13.609Z,10.27
2023-04-13T05:23:10.267Z,10.05
2023-04-13T05:24:07.116Z,10.50
2023-04-13T05:25:04.131Z,8.65
2023-04-13T05:26:00.742Z,13.57
2023-04-13T05:26:57.428Z,11.50
2023-04-13T05:27:54.098Z,6.38
2023-04-13T05:28:51.380Z,12.05
2023-04-13T05:29:48.151Z,7.60
2023-04-13T05:30:44.758Z,9.02
2023-04-13T05:31:41.443Z,9.18
2023-04-13T05:32:38.132Z,10.65
2023-04-13T05:33:35.546Z,11.57
2023-04-13T05:34:33.903Z,14.40
2023-04-13T05:35:30.508Z,7.93
2023-04-13T05:36:29.101Z,7.43
2023-04-13T05:37:25.756Z,9.40
2023-04-13T05:38:22.717Z,10.30
2023-04-13T05:39:20.517Z,9.52
2023-04-13T05:40:17.233Z,9.38
2023-04-13T05:41:13.925Z,6.82
2023-04-13T05:42:10.921Z,6.25
2023-04-13T05:43:07.530Z,6.63
2023-04-13T05:44:04.146Z,16.25
2023-04-13T05:45:00.904Z,11.63
2023-04-13T05:45:57.491Z,7.25
2023-04-13T05:46:54.312Z,6.82
2023-04-13T05:47:50.900Z,6.22
2023-04-13T05:48:47.544Z,11.40
2023-04-13T05:49:44.160Z,6.13
2023-04-13T05:50:40.829Z,9.18
2023-04-13T05:51:38.471Z,6.63
2023-04-13T05:52:35.231Z,6.60
2023-04-13T05:53:31.851Z,7.57
2023-04-13T05:54:28.437Z,7.95
2023-04-13T05:55:26.463Z,11.80
2023-04-13T05:56:24.048Z,14.10
2023-04-13T05:57:23.609Z,10.55
2023-04-13T05:58:20.294Z,11.27
2023-04-13T05:59:17.365Z,7.68
2023-04-13T06:00:16.885Z,12.10
2023-04-13T06:01:13.460Z,9.15
2023-04-13T06:02:10.768Z,12.82
2023-04-13T06:03:08.821Z,9.10
2023-04-13T06:04:06.187Z,7.65
2023-04-13T06:05:05.208Z,9.00
2023-04-13T06:06:07.026Z,8.38
2023-04-13T06:07:04.262Z,9.85
2023-04-13T06:08:01.321Z,7.80
2023-04-13T06:08:58.509Z,14.50
2023-04-13T06:09:55.223Z,10.90
2023-04-13T06:10:51.842Z,13.02
2023-04-13T06:11:48.545Z,10.68
2023-04-13T06:12:48.672Z,18.80
2023-04-13T06:13:46.035Z,18.88
2023-04-13T06:14:43.069Z,16.77
2023-04-13T06:15:40.336Z,13.65
2023-04-13T06:16:37.341Z,11.20
2023-04-13T06:17:34.537Z,17.33
2023-04-13T06:18:31.148Z,12.95
2023-04-13T06:19:29.025Z,22.38
2023-04-13T06:20:25.894Z,15.70
2023-04-13T06:21:22.926Z,15.38
2023-04-13T06:22:19.528Z,16.90
2023-04-13T06:23:16.214Z,11.70
2023-04-13T06:24:12.913Z,16.20
2023-04-13T06:25:12.256Z,12.68
2023-04-13T06:26:09.118Z,10.85
2023-04-13T06:27:05.856Z,13.77
2023-04-13T06:28:02.779Z,12.38
2023-04-13T06:29:00.045Z,12.02
2023-04-13T06:29:58.228Z,11.05
2023-04-13T06:30:56.144Z,12.50
2023-04-13T06:31:52.804Z,19.23
2023-04-13T06:32:49.538Z,10.50
2023-04-13T06:33:46.195Z,10.50
2023-04-13T06:34:45.816Z,13.55
2023-04-13T06:35:42.460Z,14.77
2023-04-13T06:36:40.570Z,10.20
2023-04-13T06:37:38.191Z,9.57
2023-04-13T06:38:34.932Z,11.40
2023-04-13T06:39:33.029Z,7.03
2023-04-13T06:40:32.170Z,18.88
2023-04-13T06:41:28.821Z,11.32
2023-04-13T06:42:25.506Z,14.80
2023-04-13T06:43:29.196Z,11.63
2023-04-13T06:44:26.524Z,13.13
2023-04-13T06:45:23.259Z,10.88
2023-04-13T06:46:20.180Z,14.38
2023-04-13T06:47:16.886Z,10.50
2023-04-13T06:48:13.555Z,13.65
2023-04-13T06:49:10.735Z,9.10
2023-04-13T06:50:10.228Z,9.32
2023-04-13T06:51:07.480Z,11.05
2023-04-13T06:52:04.223Z,12.05
2023-04-13T06:53:00.969Z,9.52
2023-04-13T06:53:57.600Z,16.15
2023-04-13T06:54:54.574Z,8.55
2023-04-13T06:55:51.295Z,13.88
2023-04-13T06:56:47.851Z,9.65
2023-04-13T06:57:44.930Z,13.10
2023-04-13T06:58:41.491Z,10.18
2023-04-13T06:59:38.074Z,13.30
2023-04-13T07:00:34.715Z,12.38
2023-04-13T07:01:31.594Z,12.38
2023-04-13T07:02:28.382Z,20.67
2023-04-13T07:03:25.817Z,28.42
2023-04-13T07:04:23.891Z,14.00
2023-04-13T07:05:21.837Z,15.45
2023-04-13T07:06:18.635Z,17.65
2023-04-13T07:07:15.257Z,23.80
2023-04-13T07:08:13.114Z,14.98
2023-04-13T07:09:09.833Z,18.27
2023-04-13T07:10:07.201Z,16.98
2023-04-13T07:11:04.008Z,14.50
2023-04-13T07:12:05.210Z,12.65
2023-04-13T07:13:01.851Z,13.40
2023-04-13T07:13:58.489Z,15.30
2023-04-13T07:14:55.147Z,15.10
2023-04-13T07:15:52.220Z,16.70
2023-04-13T07:16:48.935Z,11.05
2023-04-13T07:17:45.970Z,11.70
2023-04-13T07:18:42.665Z,10.25
2023-04-13T07:19:39.438Z,12.88
2023-04-13T07:20:36.542Z,10.93
2023-04-13T07:21:33.667Z,13.52
2023-04-13T07:22:32.653Z,10.48
2023-04-13T07:23:29.368Z,9.88
2023-04-13T07:24:30.161Z,16.45
2023-04-13T07:25:27.178Z,14.20
2023-04-13T07:26:23.868Z,12.27
2023-04-13T07:27:20.573Z,10.50
2023-04-13T07:28:17.240Z,9.18
2023-04-13T07:29:16.299Z,11.75
2023-04-13T07:30:13.474Z,10.68
2023-04-13T07:31:10.126Z,7.68
2023-04-13T07:32:07.122Z,15.93
2023-04-13T07:33:04.823Z,10.32
2023-04-13T07:34:01.393Z,9.30
2023-04-13T07:35:02.119Z,11.07
2023-04-13T07:35:59.047Z,6.35
2023-04-13T07:36:55.994Z,13.95
2023-04-13T07:37:53.371Z,7.50
2023-04-13T07:38:50.204Z,11.85
2023-04-13T07:39:47.998Z,13.13
2023-04-13T07:40:44.706Z,8.85
2023-04-13T07:41:41.353Z,9.57
2023-04-13T07:42:38.597Z,14.63
2023-04-13T07:43:35.440Z,14.10
2023-04-13T07:44:32.123Z,14.38
2023-04-13T07:45:31.968Z,8.43
2023-04-13T07:46:28.738Z,7.55
2023-04-13T07:47:25.464Z,7.25
2023-04-13T07:48:22.105Z,9.32
2023-04-13T07:49:18.793Z,7.93
2023-04-13T07:50:16.566Z,10.90
2023-04-13T07:51:18.041Z,9.80
2023-04-13T07:52:14.658Z,9.77
2023-04-13T07:53:11.593Z,13.35
2023-04-13T07:54:08.428Z,7.70
2023-04-13T07:55:07.142Z,6.75
2023-04-13T07:56:04.018Z,7.60
2023-04-13T07:57:02.373Z,7.85
2023-04-13T07:57:59.905Z,6.13
2023-04-13T07:58:56.695Z,10.43
2023-04-13T07:59:53.313Z,9.70
2023-04-13T08:00:49.928Z,8.32
2023-04-13T08:01:46.576Z,11.35
2023-04-13T08:02:43.448Z,10.60
2023-04-13T08:03:40.302Z,8.30
2023-04-13T08:04:37.167Z,5.03
2023-04-13T08:05:36.812Z,9.40
2023-04-13T08:06:34.886Z,7.82
2023-04-13T08:07:31.779Z,8.75
2023-04-13T08:08:29.639Z,9.55
2023-04-13T08:09:27.139Z,5.82
2023-04-13T08:10:23.894Z,12.73
2023-04-13T08:11:20.623Z,12.15
2023-04-13T08:12:17.487Z,11.38
2023-04-13T08:13:16.207Z,7.30
2023-04-13T08:14:12.835Z,9.50
2023-04-13T08:15:09.943Z,14.30
2023-04-13T08:16:06.971Z,10.68
2023-04-13T08:17:07.105Z,12.75
2023-04-13T08:18:03.909Z,11.95
2023-04-13T08:19:01.574Z,10.88
2023-04-13T08:19:58.656Z,10.73
2023-04-13T08:20:55.859Z,8.60
2023-04-13T08:21:52.605Z,11.63
2023-04-13T08:22:49.246Z,10.70
2023-04-13T08:23:46.393Z,11.80
2023-04-13T08:24:43.183Z,11.27
2023-04-13T08:25:41.484Z,16.27
2023-04-13T08:26:38.353Z,7.53
2023-04-13T08:27:35.423Z,10.60
2023-04-13T08:28:32.897Z,11.80
2023-04-13T08:29:30.270Z,15.90
2023-04-13T08:30:27.306Z,9.45
2023-04-13T08:31:23.906Z,10.88
2023-04-13T08:32:20.738Z,11.55
2023-04-13T08:33:17.508Z,11.63
2023-04-13T08:34:14.261Z,9.98
2023-04-13T08:35:11.709Z,13.27
2023-04-13T08:36:08.711Z,10.05
2023-04-13T08:37:05.406Z,7.90
2023-04-13T08:38:02.738Z,11.90
2023-04-13T08:38:59.632Z,8.38
2023-04-13T08:40:00.527Z,7.72
2023-04-13T08:40:57.423Z,14.40
2023-04-13T08:41:55.244Z,9.05
2023-04-13T08:42:54.640Z,12.38
2023-04-13T08:43:51.910Z,12.30
2023-04-13T08:44:49.601Z,7.57
2023-04-13T08:45:46.936Z,13.68
2023-04-13T08:46:47.145Z,15.40
2023-04-13T08:47:43.922Z,13.13
2023-04-13T08:48:53.415Z,12.43
2023-04-13T08:50:02.103Z,8.27
2023-04-13T08:51:00.678Z,11.27
2023-04-13T08:51:59.899Z,11.40
2023-04-13T08:52:56.617Z,11.55
2023-04-13T08:53:53.786Z,10.15
2023-04-13T08:54:51.171Z,6.50
2023-04-13T08:55:49.448Z,8.45
2023-04-13T08:56:47.237Z,6.97
2023-04-13T08:57:50.004Z,13.98
2023-04-13T08:58:49.388Z,11.02
2023-04-13T08:59:46.619Z,13.88
2023-04-13T09:00:44.112Z,10.30
2023-04-13T09:01:42.144Z,7.13
2023-04-13T09:02:46.462Z,11.68
2023-04-13T09:04:06.337Z,8.43
2023-04-13T09:05:14.005Z,8.98
2023-04-13T09:06:11.949Z,12.30
2023-04-13T09:07:16.088Z,10.93
2023-04-13T09:08:14.829Z,9.10
2023-04-13T09:09:17.070Z,8.65
2023-04-13T09:10:16.515Z,12.23
2023-04-13T09:11:13.723Z,7.97
2023-04-13T09:12:10.424Z,13.10
2023-04-13T09:13:07.024Z,9.07
2023-04-13T09:14:03.973Z,14.50
2023-04-13T09:15:03.129Z,11.13
2023-04-13T09:16:01.695Z,9.00
2023-04-13T09:16:58.485Z,7.05
2023-04-13T09:17:55.218Z,11.05
2023-04-13T09:18:57.368Z,10.13
2023-04-13T09:19:56.302Z,9.30
2023-04-13T09:20:57.785Z,11.95
2023-04-13T09:21:54.437Z,9.98
2023-04-13T09:22:52.456Z,10.18
2023-04-13T09:23:56.833Z,11.88
2023-04-13T09:24:53.667Z,10.38
2023-04-13T09:26:03.293Z,12.57
2023-04-13T09:27:00.446Z,9.60
2023-04-13T09:27:57.367Z,14.45
2023-04-13T09:28:57.658Z,10.35
2023-04-13T09:29:56.414Z,8.43
2023-04-13T09:31:02.292Z,8.05
2023-04-13T09:31:59.067Z,10.13
2023-04-13T09:33:05.965Z,8.75
2023-04-13T09:34:02.726Z,14.23
2023-04-13T09:35:08.473Z,10.57
2023-04-13T09:36:15.274Z,13.25
2023-04-13T09:37:13.773Z,17.58
2023-04-13T09:38:15.249Z,14.95
2023-04-13T09:39:14.306Z,12.60
2023-04-13T09:40:13.371Z,9.77
2023-04-13T09:41:10.144Z,12.48
2023-04-13T09:42:10.526Z,11.20
2023-04-13T09:43:09.409Z,15.30
2023-04-13T09:44:28.757Z,14.38
2023-04-13T09:45:34.588Z,11.82
2023-04-13T09:46:31.943Z,10.57
2023-04-13T09:47:40.567Z,9.15
2023-04-13T09:48:37.430Z,9.60
2023-04-13T09:49:41.083Z,10.98
2023-04-13T09:50:38.759Z,12.02
2023-04-13T09:51:39.784Z,10.20
2023-04-13T09:52:36.517Z,15.13
2023-04-13T09:53:43.872Z,9.93
2023-04-13T09:54:40.682Z,7.40
2023-04-13T09:55:38.870Z,9.05
2023-04-13T09:56:45.142Z,10.70
2023-04-13T09:57:41.712Z,10.40
2023-04-13T09:58:46.265Z,11.90
2023-04-13T09:59:42.910Z,10.05
2023-04-13T10:00:42.959Z,6.55
2023-04-13T10:01:43.691Z,8.80
2023-04-13T10:02:41.734Z,8.68
2023-04-13T10:03:39.026Z,7.30
2023-04-13T10:04:36.199Z,6.35
2023-04-13T10:05:39.274Z,9.70
2023-04-13T10:06:43.353Z,12.00
2023-04-13T10:07:44.162Z,7.50
2023-04-13T10:08:43.774Z,7.32
2023-04-13T10:09:44.273Z,8.65
2023-04-13T10:10:41.179Z,7.60
2023-04-13T10:11:50.180Z,6.22
2023-04-13T10:12:52.600Z,7.72
2023-04-13T10:14:58.776Z,6.40
2023-04-13T10:15:56.813Z,11.68
2023-04-13T10:17:21.462Z,6.07
2023-04-13T10:18:36.786Z,8.27
2023-04-13T10:19:43.212Z,4.65
2023-04-13T10:20:41.401Z,6.97
2023-04-13T10:21:45.200Z,8.85
2023-04-13T10:22:45.016Z,9.70
2023-04-13T10:23:42.671Z,7.80
2023-04-13T10:24:40.294Z,6.40
2023-04-13T10:25:39.123Z,10.85
2023-04-13T10:26:37.342Z,6.57
2023-04-13T10:27:36.548Z,13.15
2023-04-13T10:28:48.021Z,9.15
2023-04-13T10:29:45.363Z,6.88
2023-04-13T10:30:52.116Z,6.25
2023-04-13T10:31:51.490Z,7.72
2023-04-13T10:32:48.147Z,8.30
2023-04-13T10:33:51.503Z,14.52
2023-04-13T10:34:48.977Z,10.57
2023-04-13T10:35:59.173Z,6.03
2023-04-13T10:36:58.560Z,6.53
2023-04-13T10:37:58.397Z,7.40
2023-04-13T10:38:55.051Z,6.30
2023-04-13T10:40:05.734Z,8.98
2023-04-13T10:41:03.646Z,9.55
2023-04-13T10:42:08.849Z,8.82
2023-04-13T10:43:05.505Z,10.30
2023-04-13T10:44:08.837Z,6.60
2023-04-13T10:45:26.623Z,10.35
2023-04-13T10:46:23.401Z,6.53
2023-04-13T10:47:21.777Z,9.55
2023-04-13T10:48:21.815Z,9.02
2023-04-13T10:49:18.708Z,7.47
2023-04-13T10:50:27.610Z,9.88
2023-04-13T10:51:24.459Z,9.68
2023-04-13T10:52:21.129Z,7.05
2023-04-13T10:53:26.733Z,6.75
2023-04-13T10:54:27.271Z,7.03
2023-04-13T10:55:27.502Z,5.45
2023-04-13T10:56:24.087Z,5.82
2023-04-13T10:57:21.067Z,7.90
2023-04-13T10:58:18.478Z,5.25
2023-04-13T10:59:16.546Z,9.63
2023-04-13T11:00:22.131Z,7.05
2023-04-13T11:01:22.953Z,4.85
2023-04-13T11:02:20.007Z,8.65
2023-04-13T11:03:19.232Z,10.38
2023-04-13T11:04:18.688Z,8.15
2023-04-13T11:05:17.693Z,8.77
2023-04-13T11:06:15.521Z,6.07
2023-04-13T11:07:14.344Z,7.57
2023-04-13T11:08:20.805Z,10.38
2023-04-13T11:09:22.816Z,5.57
2023-04-13T11:10:27.298Z,5.88
2023-04-13T11:11:28.043Z,8.82
2023-04-13T11:12:25.601Z,9.00
2023-04-13T11:13:25.483Z,5.72
2023-04-13T11:14:22.745Z,7.38
2023-04-13T11:15:23.919Z,6.97
2023-04-13T11:16:20.620Z,5.40
2023-04-13T11:17:19.327Z,6.05
2023-04-13T11:18:26.586Z,9.80
2023-04-13T11:19:23.411Z,8.77
2023-04-13T11:20:30.149Z,8.23
2023-04-13T11:21:26.817Z,5.80
2023-04-13T11:22:27.803Z,7.03
2023-04-13T11:23:24.801Z,5.70
2023-04-13T11:24:29.781Z,9.30
2023-04-13T11:25:26.843Z,5.00
2023-04-13T11:26:34.346Z,6.55
2023-04-13T11:27:30.990Z,10.98
2023-04-13T11:28:40.189Z,6.05
2023-04-13T11:29:36.821Z,6.95
2023-04-13T11:30:33.595Z,5.70
2023-04-13T11:31:42.044Z,9.75
2023-04-13T11:32:41.651Z,5.18
2023-04-13T11:33:40.291Z,5.28
2023-04-13T11:34:37.976Z,7.10
2023-04-13T11:35:49.948Z,9.52
2023-04-13T11:36:49.775Z,5.72
2023-04-13T11:37:49.547Z,6.95
2023-04-13T11:38:48.123Z,8.32
2023-04-13T11:39:44.939Z,8.00
2023-04-13T11:40:45.357Z,6.88
2023-04-13T11:41:43.362Z,10.52
2023-04-13T11:42:45.181Z,13.10
2023-04-13T11:43:42.108Z,6.82
2023-04-13T11:44:39.515Z,5.90
2023-04-13T11:45:38.912Z,6.60
2023-04-13T11:46:36.608Z,8.07
2023-04-13T11:47:34.439Z,7.10
2023-04-13T11:48:31.365Z,10.20
2023-04-13T11:49:28.088Z,6.75
2023-04-13T11:50:26.121Z,7.60
2023-04-13T11:51:23.945Z,8.68
2023-04-13T11:52:20.729Z,9.07
2023-04-13T11:53:18.197Z,9.13
2023-04-13T11:54:17.139Z,6.22
2023-04-13T11:55:23.108Z,7.20
2023-04-13T11:56:20.873Z,8.77
2023-04-13T11:57:18.332Z,7.28
2023-04-13T11:58:16.693Z,9.52
2023-04-13T11:59:13.551Z,7.43
2023-04-13T12:00:28.378Z,12.82
2023-04-13T12:01:29.912Z,13.02
2023-04-13T12:02:38.874Z,11.40
2023-04-13T12:04:43.768Z,7.57
2023-04-13T12:05:43.179Z,5.60
2023-04-13T12:06:42.495Z,11.40
2023-04-13T12:07:40.847Z,11.00
2023-04-13T12:08:37.953Z,5.93
2023-04-13T12:09:56.277Z,8.63
2023-04-13T12:12:29.924Z,7.97
2023-04-13T12:13:35.598Z,5.78
2023-04-13T12:14:54.082Z,8.25
2023-04-13T12:17:59.937Z,7.85
2023-04-13T12:19:07.386Z,8.93
2023-04-13T12:20:07.667Z,13.13
2023-04-13T12:21:07.894Z,7.85
2023-04-13T12:22:07.130Z,7.55
2023-04-13T12:23:12.516Z,9.88
2023-04-13T12:24:18.972Z,7.85
2023-04-13T12:25:33.560Z,8.88
2023-04-13T12:27:10.341Z,12.27
2023-04-13T12:27:55.586Z,8.52
2023-04-13T12:28:57.016Z,6.05
2023-04-13T12:29:53.826Z,6.68
2023-04-13T12:30:50.465Z,11.15
2023-04-13T12:31:47.725Z,9.43
2023-04-13T12:32:47.175Z,9.02
2023-04-13T12:33:43.888Z,9.90
2023-04-13T12:34:43.930Z,8.13
2023-04-13T12:35:40.703Z,9.27
2023-04-13T12:36:37.425Z,6.47
2023-04-13T12:37:34.078Z,15.18
2023-04-13T12:38:32.471Z,7.78
2023-04-13T12:39:29.800Z,10.60
2023-04-13T12:40:26.614Z,9.68
2023-04-13T12:41:23.366Z,7.22
2023-04-13T12:42:19.990Z,11.23
2023-04-13T12:43:16.621Z,8.40
2023-04-13T12:44:13.257Z,9.02
2023-04-13T12:45:10.541Z,6.40
2023-04-13T12:46:07.191Z,8.07
2023-04-13T12:47:04.496Z,10.32
2023-04-13T12:48:01.350Z,8.48
2023-04-13T12:48:58.293Z,10.27
2023-04-13T12:49:56.334Z,8.20
2023-04-13T12:50:54.245Z,8.45
2023-04-13T12:51:50.886Z,6.65
2023-04-13T12:52:47.559Z,5.60
2023-04-13T12:53:44.272Z,9.23
2023-04-13T12:54:40.904Z,9.23
2023-04-13T12:55:38.470Z,7.85
2023-04-13T12:56:35.157Z,10.85
2023-04-13T12:57:32.644Z,7.10
2023-04-13T12:58:29.384Z,6.47
2023-04-13T12:59:26.147Z,14.35
2023-04-13T13:00:23.032Z,10.85